Aviation Digital Data Service (ADDS)

Output produced by METARs form (1327 UTC 07 October 2022)
found at http://www.aviationweather.gov/metar/data/
 
LETO 071300Z 14001KT CAVOK 23/11 Q1021 NOSIG
TAF LETO 071100Z 0712/0812 VRB03KT CAVOK TX25/0715Z TN10/0806Z
       
LEZG 071300Z 10004KT 9999 FEW085 26/12 Q1021
TAF LEZG 071100Z 0712/0812 12007KT 9999 SCT050 TX25/0713Z TN16/0806Z 
     BECMG 0802/0805 30012KT
       
LERT 071300Z 25005KT 190V360 9999 FEW048 27/16 Q1017 NOSIG
TAF LERT 070800Z 0709/0809 05007KT CAVOK TX31/0715Z TN17/0806Z 
     BECMG 0712/0714 27010KT 
     BECMG 0718/0720 13010KT 
     BECMG 0723/0801 VRB02KT
       
LELC 071300Z 06007KT 020V100 9999 FEW040 25/18 Q1020 NOSIG
TAF LELC 071100Z 0712/0812 05011KT 9999 SCT025 TX24/0712Z TN18/0806Z 
     BECMG 0800/0803 35007KT
       
LEAB 071300Z VRB05KT 9999 SCT040 23/12 Q1022 NOSIG
TAF LEAB 071100Z 0712/0812 VRB05KT 9999 SCT028 SCT050 TX25/0715Z TN13/0806Z 
     PROB40 
     TEMPO 0716/0720 09010KT 
     PROB40 
     TEMPO 0721/0809 3000 BR BKN007
       
LEBZ 071300Z 09007KT 050V140 CAVOK 28/12 Q1018
TAF LEBZ 070800Z 0709/0809 09005KT CAVOK TX31/0715Z TN17/0806Z
       
LEMO 071300Z 06012KT 360V080 CAVOK 29/11 Q1017 NOSIG
TAF LEMO 070800Z 0709/0809 07009KT CAVOK TX31/0715Z TN17/0806Z 
     BECMG 0718/0720 25010KT 
     BECMG 0721/0723 VRB02KT
       
LESA 071300Z 01004KT 310V060 CAVOK 24/09 Q1022
TAF AMD LESA 071022Z 0710/0809 VRB05KT 9999 FEW040 TX26/0715Z TN08/0806Z 
     PROB30 
     TEMPO 0713/0718 RA SHRA FEW040TCU BKN050
       
GCLP 071300Z 01024KT 9999 FEW025 27/18 Q1015 NOSIG
TAF GCLP 070800Z 0709/0809 01022KT 9999 SCT025 TX26/0714Z TN22/0806Z 
     TEMPO 0709/0719 36020G32KT
       
LIED 071255Z 14010KT 9999 FEW025 27/12 Q1021 RMK FEW VIS MIN 9999 WIND THR35 /////KT WIND THR17 15008KT BLU
TAF LIED 071100Z 0712/0721 15012KT 9999 FEW025 
     BECMG 0717/0719 VRB03KT
       
LIPR 071320Z 02008KT CAVOK 21/17 Q1022
TAF LIPR 071100Z 0712/0812 33010KT CAVOK 
     BECMG 0712/0714 VRB05KT